sensor_id;sensor_type;location;lat;lon;timestamp;P1;durP1;ratioP1;P2;durP2;ratioP2
31596;SDS011;74162;50.912;6.918;2023-11-21T00:00:28;26.60;;;17.65;;
31596;SDS011;74162;50.912;6.918;2023-11-21T00:00:59;25.15;;;16.83;;
31596;SDS011;74162;50.912;6.918;2023-11-21T00:01:33;24.23;;;16.80;;
31596;SDS011;74162;50.912;6.918;2023-11-21T00:02:05;23.67;;;16.52;;
31596;SDS011;74162;50.912;6.918;2023-11-21T00:02:36;23.40;;;16.17;;
31596;SDS011;74162;50.912;6.918;2023-11-21T00:03:08;20.65;;;15.55;;
31596;SDS011;74162;50.912;6.918;2023-11-21T00:03:40;18.55;;;14.65;;
31596;SDS011;74162;50.912;6.918;2023-11-21T00:04:12;19.23;;;15.20;;
31596;SDS011;74162;50.912;6.918;2023-11-21T00:04:44;20.60;;;14.75;;
31596;SDS011;74162;50.912;6.918;2023-11-21T00:05:16;20.55;;;14.70;;
31596;SDS011;74162;50.912;6.918;2023-11-21T00:05:48;20.65;;;14.88;;
31596;SDS011;74162;50.912;6.918;2023-11-21T00:06:20;20.30;;;15.32;;
31596;SDS011;74162;50.912;6.918;2023-11-21T00:06:52;23.10;;;15.32;;
31596;SDS011;74162;50.912;6.918;2023-11-21T00:07:23;19.15;;;14.90;;
31596;SDS011;74162;50.912;6.918;2023-11-21T00:07:55;27.10;;;16.55;;
31596;SDS011;74162;50.912;6.918;2023-11-21T00:08:27;23.40;;;16.40;;
31596;SDS011;74162;50.912;6.918;2023-11-21T00:08:59;23.30;;;16.17;;
31596;SDS011;74162;50.912;6.918;2023-11-21T00:09:31;18.98;;;15.13;;
31596;SDS011;74162;50.912;6.918;2023-11-21T00:10:03;24.67;;;15.55;;
31596;SDS011;74162;50.912;6.918;2023-11-21T00:10:36;23.35;;;16.00;;
31596;SDS011;74162;50.912;6.918;2023-11-21T00:11:08;25.58;;;15.73;;
31596;SDS011;74162;50.912;6.918;2023-11-21T00:11:39;20.90;;;15.05;;
31596;SDS011;74162;50.912;6.918;2023-11-21T00:12:11;24.08;;;16.58;;
31596;SDS011;74162;50.912;6.918;2023-11-21T00:12:43;21.02;;;15.60;;
31596;SDS011;74162;50.912;6.918;2023-11-21T00:13:15;22.90;;;15.80;;
31596;SDS011;74162;50.912;6.918;2023-11-21T00:13:47;20.67;;;14.45;;
31596;SDS011;74162;50.912;6.918;2023-11-21T00:14:21;22.30;;;14.23;;
31596;SDS011;74162;50.912;6.918;2023-11-21T00:14:53;22.15;;;14.68;;
31596;SDS011;74162;50.912;6.918;2023-11-21T00:15:28;19.63;;;14.10;;
31596;SDS011;74162;50.912;6.918;2023-11-21T00:16:00;21.27;;;14.88;;
31596;SDS011;74162;50.912;6.918;2023-11-21T00:16:33;19.52;;;14.23;;
31596;SDS011;74162;50.912;6.918;2023-11-21T00:17:05;24.48;;;15.02;;
31596;SDS011;74162;50.912;6.918;2023-11-21T00:17:37;22.08;;;14.23;;
31596;SDS011;74162;50.912;6.918;2023-11-21T00:18:09;24.00;;;15.27;;
31596;SDS011;74162;50.912;6.918;2023-11-21T00:18:41;20.80;;;15.40;;
31596;SDS011;74162;50.912;6.918;2023-11-21T00:19:13;22.05;;;15.23;;
31596;SDS011;74162;50.912;6.918;2023-11-21T00:19:45;20.05;;;15.38;;
31596;SDS011;74162;50.912;6.918;2023-11-21T00:20:17;20.30;;;14.57;;
31596;SDS011;74162;50.912;6.918;2023-11-21T00:20:49;23.73;;;16.08;;
31596;SDS011;74162;50.912;6.918;2023-11-21T00:21:20;26.33;;;15.82;;
31596;SDS011;74162;50.912;6.918;2023-11-21T00:21:52;20.50;;;16.00;;
31596;SDS011;74162;50.912;6.918;2023-11-21T00:22:24;25.23;;;15.70;;
31596;SDS011;74162;50.912;6.918;2023-11-21T00:22:56;25.02;;;16.17;;
31596;SDS011;74162;50.912;6.918;2023-11-21T00:23:28;20.23;;;14.98;;
31596;SDS011;74162;50.912;6.918;2023-11-21T00:24:00;27.30;;;16.27;;
31596;SDS011;74162;50.912;6.918;2023-11-21T00:24:31;28.38;;;16.52;;
31596;SDS011;74162;50.912;6.918;2023-11-21T00:25:04;21.92;;;15.43;;
31596;SDS011;74162;50.912;6.918;2023-11-21T00:25:37;21.20;;;15.40;;
31596;SDS011;74162;50.912;6.918;2023-11-21T00:26:09;27.52;;;16.48;;
31596;SDS011;74162;50.912;6.918;2023-11-21T00:26:40;22.63;;;15.98;;
31596;SDS011;74162;50.912;6.918;2023-11-21T00:27:12;18.25;;;15.25;;
31596;SDS011;74162;50.912;6.918;2023-11-21T00:27:44;24.38;;;15.15;;
31596;SDS011;74162;50.912;6.918;2023-11-21T00:28:16;19.90;;;15.10;;
31596;SDS011;74162;50.912;6.918;2023-11-21T00:28:48;19.52;;;15.50;;
31596;SDS011;74162;50.912;6.918;2023-11-21T00:29:20;22.33;;;15.55;;
31596;SDS011;74162;50.912;6.918;2023-11-21T00:29:52;20.92;;;15.43;;
31596;SDS011;74162;50.912;6.918;2023-11-21T00:30:24;18.65;;;15.07;;
31596;SDS011;74162;50.912;6.918;2023-11-21T00:30:55;22.48;;;15.75;;
31596;SDS011;74162;50.912;6.918;2023-11-21T00:31:27;26.90;;;15.38;;
31596;SDS011;74162;50.912;6.918;2023-11-21T00:32:00;20.92;;;14.95;;
31596;SDS011;74162;50.912;6.918;2023-11-21T00:32:32;19.02;;;14.60;;
31596;SDS011;74162;50.912;6.918;2023-11-21T00:33:04;21.77;;;15.35;;
31596;SDS011;74162;50.912;6.918;2023-11-21T00:33:36;21.13;;;15.13;;
31596;SDS011;74162;50.912;6.918;2023-11-21T00:34:08;20.50;;;14.48;;
31596;SDS011;74162;50.912;6.918;2023-11-21T00:34:40;24.52;;;15.23;;
31596;SDS011;74162;50.912;6.918;2023-11-21T00:35:12;23.35;;;14.82;;
31596;SDS011;74162;50.912;6.918;2023-11-21T00:35:44;22.23;;;15.55;;
31596;SDS011;74162;50.912;6.918;2023-11-21T00:36:16;24.70;;;15.95;;
31596;SDS011;74162;50.912;6.918;2023-11-21T00:36:49;22.70;;;16.17;;
31596;SDS011;74162;50.912;6.918;2023-11-21T00:37:20;25.42;;;17.17;;
31596;SDS011;74162;50.912;6.918;2023-11-21T00:37:52;24.13;;;16.23;;
31596;SDS011;74162;50.912;6.918;2023-11-21T00:38:24;23.33;;;16.30;;
31596;SDS011;74162;50.912;6.918;2023-11-21T00:38:56;20.75;;;15.00;;
31596;SDS011;74162;50.912;6.918;2023-11-21T00:39:28;19.85;;;15.13;;
31596;SDS011;74162;50.912;6.918;2023-11-21T00:39:59;23.45;;;15.75;;
31596;SDS011;74162;50.912;6.918;2023-11-21T00:40:31;21.48;;;16.38;;
31596;SDS011;74162;50.912;6.918;2023-11-21T00:41:03;21.60;;;15.10;;
31596;SDS011;74162;50.912;6.918;2023-11-21T00:41:35;23.88;;;16.63;;
31596;SDS011;74162;50.912;6.918;2023-11-21T00:42:07;25.85;;;16.30;;
31596;SDS011;74162;50.912;6.918;2023-11-21T00:42:39;24.13;;;14.95;;
31596;SDS011;74162;50.912;6.918;2023-11-21T00:43:10;22.40;;;17.08;;
31596;SDS011;74162;50.912;6.918;2023-11-21T00:43:42;26.95;;;17.50;;
31596;SDS011;74162;50.912;6.918;2023-11-21T00:44:14;23.50;;;16.95;;
31596;SDS011;74162;50.912;6.918;2023-11-21T00:44:46;27.90;;;17.08;;
31596;SDS011;74162;50.912;6.918;2023-11-21T00:45:18;25.80;;;16.55;;
31596;SDS011;74162;50.912;6.918;2023-11-21T00:45:50;24.25;;;17.13;;
31596;SDS011;74162;50.912;6.918;2023-11-21T00:46:22;25.23;;;16.70;;
31596;SDS011;74162;50.912;6.918;2023-11-21T00:46:54;21.05;;;16.20;;
31596;SDS011;74162;50.912;6.918;2023-11-21T00:47:27;23.67;;;16.08;;
31596;SDS011;74162;50.912;6.918;2023-11-21T00:47:59;20.08;;;16.48;;
31596;SDS011;74162;50.912;6.918;2023-11-21T00:48:31;25.92;;;17.05;;
31596;SDS011;74162;50.912;6.918;2023-11-21T00:49:03;25.23;;;16.98;;
31596;SDS011;74162;50.912;6.918;2023-11-21T00:49:35;22.55;;;16.45;;
31596;SDS011;74162;50.912;6.918;2023-11-21T00:50:07;22.88;;;15.52;;
31596;SDS011;74162;50.912;6.918;2023-11-21T00:50:40;20.33;;;15.07;;
31596;SDS011;74162;50.912;6.918;2023-11-21T00:51:11;21.23;;;14.98;;
31596;SDS011;74162;50.912;6.918;2023-11-21T00:51:43;24.70;;;16.23;;
31596;SDS011;74162;50.912;6.918;2023-11-21T00:52:15;23.33;;;16.73;;
31596;SDS011;74162;50.912;6.918;2023-11-21T00:52:47;26.83;;;18.05;;
31596;SDS011;74162;50.912;6.918;2023-11-21T00:53:19;24.45;;;17.52;;
31596;SDS011;74162;50.912;6.918;2023-11-21T00:53:50;24.45;;;17.27;;
31596;SDS011;74162;50.912;6.918;2023-11-21T00:54:22;26.58;;;19.38;;
31596;SDS011;74162;50.912;6.918;2023-11-21T00:54:54;25.25;;;19.48;;
31596;SDS011;74162;50.912;6.918;2023-11-21T00:55:26;27.42;;;19.40;;
31596;SDS011;74162;50.912;6.918;2023-11-21T00:55:58;27.30;;;18.23;;
31596;SDS011;74162;50.912;6.918;2023-11-21T00:56:30;23.73;;;18.25;;
31596;SDS011;74162;50.912;6.918;2023-11-21T00:57:02;25.20;;;18.33;;
31596;SDS011;74162;50.912;6.918;2023-11-21T00:57:34;25.55;;;19.02;;
31596;SDS011;74162;50.912;6.918;2023-11-21T00:58:06;29.85;;;19.77;;
31596;SDS011;74162;50.912;6.918;2023-11-21T00:58:38;30.48;;;20.55;;
31596;SDS011;74162;50.912;6.918;2023-11-21T00:59:10;26.77;;;19.48;;
31596;SDS011;74162;50.912;6.918;2023-11-21T00:59:42;30.40;;;19.90;;
31596;SDS011;74162;50.912;6.918;2023-11-21T01:00:14;27.67;;;19.95;;
31596;SDS011;74162;50.912;6.918;2023-11-21T01:00:47;25.45;;;19.23;;
31596;SDS011;74162;50.912;6.918;2023-11-21T01:01:18;26.98;;;18.67;;
31596;SDS011;74162;50.912;6.918;2023-11-21T01:01:51;23.45;;;17.92;;
31596;SDS011;74162;50.912;6.918;2023-11-21T01:02:22;26.85;;;19.08;;
31596;SDS011;74162;50.912;6.918;2023-11-21T01:02:56;24.83;;;18.70;;
31596;SDS011;74162;50.912;6.918;2023-11-21T01:03:28;24.30;;;17.85;;
31596;SDS011;74162;50.912;6.918;2023-11-21T01:03:59;24.50;;;18.35;;
31596;SDS011;74162;50.912;6.918;2023-11-21T01:04:31;29.08;;;19.83;;
31596;SDS011;74162;50.912;6.918;2023-11-21T01:05:03;27.42;;;18.55;;
31596;SDS011;74162;50.912;6.918;2023-11-21T01:05:36;22.35;;;17.48;;
31596;SDS011;74162;50.912;6.918;2023-11-21T01:06:08;29.27;;;20.58;;
31596;SDS011;74162;50.912;6.918;2023-11-21T01:06:40;27.02;;;20.17;;
31596;SDS011;74162;50.912;6.918;2023-11-21T01:07:12;26.20;;;19.90;;
31596;SDS011;74162;50.912;6.918;2023-11-21T01:07:43;29.70;;;20.70;;
31596;SDS011;74162;50.912;6.918;2023-11-21T01:08:15;28.70;;;21.55;;
31596;SDS011;74162;50.912;6.918;2023-11-21T01:08:47;31.30;;;22.00;;
31596;SDS011;74162;50.912;6.918;2023-11-21T01:09:19;31.05;;;21.55;;
31596;SDS011;74162;50.912;6.918;2023-11-21T01:09:51;32.60;;;21.77;;
31596;SDS011;74162;50.912;6.918;2023-11-21T01:10:22;31.85;;;22.52;;
31596;SDS011;74162;50.912;6.918;2023-11-21T01:10:54;30.15;;;21.98;;
31596;SDS011;74162;50.912;6.918;2023-11-21T01:11:26;33.28;;;22.42;;
31596;SDS011;74162;50.912;6.918;2023-11-21T01:11:58;32.30;;;22.75;;
31596;SDS011;74162;50.912;6.918;2023-11-21T01:12:30;34.58;;;23.88;;
31596;SDS011;74162;50.912;6.918;2023-11-21T01:13:02;35.10;;;24.42;;
31596;SDS011;74162;50.912;6.918;2023-11-21T01:13:34;38.42;;;26.52;;
31596;SDS011;74162;50.912;6.918;2023-11-21T01:14:06;35.47;;;24.35;;
31596;SDS011;74162;50.912;6.918;2023-11-21T01:14:38;40.33;;;25.65;;
31596;SDS011;74162;50.912;6.918;2023-11-21T01:15:09;34.03;;;26.17;;
31596;SDS011;74162;50.912;6.918;2023-11-21T01:15:41;34.38;;;25.77;;
31596;SDS011;74162;50.912;6.918;2023-11-21T01:16:13;32.83;;;24.35;;
31596;SDS011;74162;50.912;6.918;2023-11-21T01:16:45;34.55;;;24.00;;
31596;SDS011;74162;50.912;6.918;2023-11-21T01:17:17;35.85;;;24.52;;
31596;SDS011;74162;50.912;6.918;2023-11-21T01:17:49;36.50;;;23.92;;
31596;SDS011;74162;50.912;6.918;2023-11-21T01:18:22;34.67;;;23.83;;
31596;SDS011;74162;50.912;6.918;2023-11-21T01:18:54;32.00;;;24.77;;
31596;SDS011;74162;50.912;6.918;2023-11-21T01:19:26;32.90;;;23.90;;
31596;SDS011;74162;50.912;6.918;2023-11-21T01:19:58;34.53;;;23.75;;
31596;SDS011;74162;50.912;6.918;2023-11-21T01:20:30;34.17;;;24.35;;
31596;SDS011;74162;50.912;6.918;2023-11-21T01:21:02;32.72;;;24.20;;
31596;SDS011;74162;50.912;6.918;2023-11-21T01:21:34;32.53;;;23.70;;
31596;SDS011;74162;50.912;6.918;2023-11-21T01:22:06;31.25;;;22.83;;
31596;SDS011;74162;50.912;6.918;2023-11-21T01:22:38;35.38;;;23.92;;
31596;SDS011;74162;50.912;6.918;2023-11-21T01:23:10;32.70;;;23.90;;
31596;SDS011;74162;50.912;6.918;2023-11-21T01:23:42;28.60;;;22.83;;
31596;SDS011;74162;50.912;6.918;2023-11-21T01:24:14;30.17;;;23.38;;
31596;SDS011;74162;50.912;6.918;2023-11-21T01:24:46;36.40;;;23.67;;
31596;SDS011;74162;50.912;6.918;2023-11-21T01:25:18;32.25;;;23.77;;
31596;SDS011;74162;50.912;6.918;2023-11-21T01:25:49;29.95;;;22.55;;
31596;SDS011;74162;50.912;6.918;2023-11-21T01:26:21;31.20;;;23.02;;
31596;SDS011;74162;50.912;6.918;2023-11-21T01:26:53;27.38;;;22.48;;
31596;SDS011;74162;50.912;6.918;2023-11-21T01:27:25;29.08;;;22.25;;
31596;SDS011;74162;50.912;6.918;2023-11-21T01:27:57;29.63;;;22.45;;
31596;SDS011;74162;50.912;6.918;2023-11-21T01:28:28;28.10;;;22.30;;
31596;SDS011;74162;50.912;6.918;2023-11-21T01:29:00;31.40;;;24.27;;
31596;SDS011;74162;50.912;6.918;2023-11-21T01:29:32;33.13;;;23.77;;
31596;SDS011;74162;50.912;6.918;2023-11-21T01:30:04;34.20;;;24.77;;
31596;SDS011;74162;50.912;6.918;2023-11-21T01:30:37;33.80;;;24.83;;
31596;SDS011;74162;50.912;6.918;2023-11-21T01:31:09;34.50;;;24.60;;
31596;SDS011;74162;50.912;6.918;2023-11-21T01:31:41;36.88;;;25.40;;
31596;SDS011;74162;50.912;6.918;2023-11-21T01:32:13;36.22;;;25.42;;
31596;SDS011;74162;50.912;6.918;2023-11-21T01:32:45;37.22;;;24.63;;
31596;SDS011;74162;50.912;6.918;2023-11-21T01:33:17;37.90;;;26.20;;
31596;SDS011;74162;50.912;6.918;2023-11-21T01:33:50;35.72;;;27.48;;
31596;SDS011;74162;50.912;6.918;2023-11-21T01:34:22;36.35;;;26.50;;
31596;SDS011;74162;50.912;6.918;2023-11-21T01:34:54;35.20;;;26.27;;
31596;SDS011;74162;50.912;6.918;2023-11-21T01:35:26;42.20;;;27.63;;
31596;SDS011;74162;50.912;6.918;2023-11-21T01:35:58;37.03;;;25.52;;
31596;SDS011;74162;50.912;6.918;2023-11-21T01:36:30;31.10;;;25.00;;
31596;SDS011;74162;50.912;6.918;2023-11-21T01:37:02;31.38;;;24.48;;
31596;SDS011;74162;50.912;6.918;2023-11-21T01:37:34;36.83;;;25.23;;
31596;SDS011;74162;50.912;6.918;2023-11-21T01:38:06;33.53;;;24.48;;
31596;SDS011;74162;50.912;6.918;2023-11-21T01:38:38;32.78;;;23.08;;
31596;SDS011;74162;50.912;6.918;2023-11-21T01:39:10;34.78;;;23.40;;
31596;SDS011;74162;50.912;6.918;2023-11-21T01:39:41;37.90;;;25.58;;
31596;SDS011;74162;50.912;6.918;2023-11-21T01:40:13;32.65;;;23.63;;
31596;SDS011;74162;50.912;6.918;2023-11-21T01:40:46;33.83;;;23.58;;
31596;SDS011;74162;50.912;6.918;2023-11-21T01:41:18;34.55;;;23.88;;
31596;SDS011;74162;50.912;6.918;2023-11-21T01:41:50;34.70;;;24.50;;
31596;SDS011;74162;50.912;6.918;2023-11-21T01:42:21;31.05;;;22.95;;
31596;SDS011;74162;50.912;6.918;2023-11-21T01:42:53;36.28;;;23.25;;
31596;SDS011;74162;50.912;6.918;2023-11-21T01:43:25;32.17;;;23.52;;
31596;SDS011;74162;50.912;6.918;2023-11-21T01:43:57;33.10;;;23.67;;
31596;SDS011;74162;50.912;6.918;2023-11-21T01:44:29;30.83;;;22.47;;
31596;SDS011;74162;50.912;6.918;2023-11-21T01:45:01;30.05;;;22.13;;
31596;SDS011;74162;50.912;6.918;2023-11-21T01:45:33;31.13;;;22.65;;
31596;SDS011;74162;50.912;6.918;2023-11-21T01:46:05;28.73;;;21.90;;
31596;SDS011;74162;50.912;6.918;2023-11-21T01:46:37;29.88;;;22.48;;
31596;SDS011;74162;50.912;6.918;2023-11-21T01:47:10;30.65;;;23.00;;
31596;SDS011;74162;50.912;6.918;2023-11-21T01:47:42;33.80;;;23.95;;
31596;SDS011;74162;50.912;6.918;2023-11-21T01:48:15;37.38;;;24.73;;
31596;SDS011;74162;50.912;6.918;2023-11-21T01:48:48;37.53;;;26.35;;
31596;SDS011;74162;50.912;6.918;2023-11-21T01:49:21;37.25;;;26.27;;
31596;SDS011;74162;50.912;6.918;2023-11-21T01:49:53;42.45;;;27.17;;
31596;SDS011;74162;50.912;6.918;2023-11-21T01:50:26;40.42;;;27.95;;
31596;SDS011;74162;50.912;6.918;2023-11-21T01:50:58;40.78;;;27.45;;
31596;SDS011;74162;50.912;6.918;2023-11-21T01:51:30;35.70;;;26.95;;
31596;SDS011;74162;50.912;6.918;2023-11-21T01:52:02;36.30;;;26.67;;
31596;SDS011;74162;50.912;6.918;2023-11-21T01:52:35;38.35;;;26.15;;
31596;SDS011;74162;50.912;6.918;2023-11-21T01:53:07;40.28;;;27.02;;
31596;SDS011;74162;50.912;6.918;2023-11-21T01:53:40;36.85;;;25.67;;
31596;SDS011;74162;50.912;6.918;2023-11-21T01:54:12;40.17;;;27.33;;
31596;SDS011;74162;50.912;6.918;2023-11-21T01:54:48;35.03;;;25.95;;
31596;SDS011;74162;50.912;6.918;2023-11-21T01:55:20;40.63;;;26.92;;
31596;SDS011;74162;50.912;6.918;2023-11-21T01:55:55;37.55;;;27.27;;
31596;SDS011;74162;50.912;6.918;2023-11-21T01:56:29;41.33;;;27.77;;
31596;SDS011;74162;50.912;6.918;2023-11-21T01:57:00;40.35;;;27.92;;
31596;SDS011;74162;50.912;6.918;2023-11-21T01:57:34;39.72;;;27.92;;
31596;SDS011;74162;50.912;6.918;2023-11-21T01:58:07;39.03;;;28.25;;
31596;SDS011;74162;50.912;6.918;2023-11-21T01:58:40;39.13;;;28.15;;
31596;SDS011;74162;50.912;6.918;2023-11-21T01:59:12;39.47;;;27.02;;
31596;SDS011;74162;50.912;6.918;2023-11-21T01:59:49;40.38;;;26.58;;
31596;SDS011;74162;50.912;6.918;2023-11-21T02:00:24;41.63;;;27.60;;
31596;SDS011;74162;50.912;6.918;2023-11-21T02:00:56;35.55;;;26.83;;
31596;SDS011;74162;50.912;6.918;2023-11-21T02:01:28;37.83;;;25.92;;
31596;SDS011;74162;50.912;6.918;2023-11-21T02:02:00;35.38;;;24.60;;
31596;SDS011;74162;50.912;6.918;2023-11-21T02:02:32;32.97;;;24.35;;
31596;SDS011;74162;50.912;6.918;2023-11-21T02:03:04;32.45;;;24.33;;
31596;SDS011;74162;50.912;6.918;2023-11-21T02:03:35;34.42;;;24.95;;
31596;SDS011;74162;50.912;6.918;2023-11-21T02:04:09;31.38;;;23.70;;
31596;SDS011;74162;50.912;6.918;2023-11-21T02:04:41;35.20;;;24.10;;
31596;SDS011;74162;50.912;6.918;2023-11-21T02:05:13;35.75;;;23.92;;
31596;SDS011;74162;50.912;6.918;2023-11-21T02:05:47;31.92;;;22.30;;
31596;SDS011;74162;50.912;6.918;2023-11-21T02:06:18;32.95;;;22.75;;
31596;SDS011;74162;50.912;6.918;2023-11-21T02:06:50;34.53;;;24.45;;
31596;SDS011;74162;50.912;6.918;2023-11-21T02:07:22;33.35;;;22.90;;
31596;SDS011;74162;50.912;6.918;2023-11-21T02:07:54;30.92;;;23.02;;
31596;SDS011;74162;50.912;6.918;2023-11-21T02:08:26;34.20;;;24.02;;
31596;SDS011;74162;50.912;6.918;2023-11-21T02:08:58;35.85;;;24.50;;
31596;SDS011;74162;50.912;6.918;2023-11-21T02:09:30;32.25;;;23.50;;
31596;SDS011;74162;50.912;6.918;2023-11-21T02:10:02;36.95;;;24.95;;
31596;SDS011;74162;50.912;6.918;2023-11-21T02:10:34;35.85;;;25.35;;
31596;SDS011;74162;50.912;6.918;2023-11-21T02:11:06;34.53;;;24.05;;
31596;SDS011;74162;50.912;6.918;2023-11-21T02:11:38;33.78;;;24.63;;
31596;SDS011;74162;50.912;6.918;2023-11-21T02:12:09;37.80;;;24.13;;
31596;SDS011;74162;50.912;6.918;2023-11-21T02:12:41;34.83;;;24.20;;
31596;SDS011;74162;50.912;6.918;2023-11-21T02:13:13;39.83;;;25.45;;
31596;SDS011;74162;50.912;6.918;2023-11-21T02:13:45;39.67;;;25.73;;
31596;SDS011;74162;50.912;6.918;2023-11-21T02:14:17;38.33;;;25.23;;
31596;SDS011;74162;50.912;6.918;2023-11-21T02:14:49;36.97;;;25.20;;
31596;SDS011;74162;50.912;6.918;2023-11-21T02:15:21;36.33;;;25.85;;
31596;SDS011;74162;50.912;6.918;2023-11-21T02:15:53;34.47;;;25.42;;
31596;SDS011;74162;50.912;6.918;2023-11-21T02:16:25;39.00;;;26.15;;
31596;SDS011;74162;50.912;6.918;2023-11-21T02:16:57;37.38;;;26.58;;
31596;SDS011;74162;50.912;6.918;2023-11-21T02:17:29;34.75;;;25.52;;
31596;SDS011;74162;50.912;6.918;2023-11-21T02:18:00;37.97;;;25.38;;
31596;SDS011;74162;50.912;6.918;2023-11-21T02:18:33;32.17;;;25.27;;
31596;SDS011;74162;50.912;6.918;2023-11-21T02:19:05;35.17;;;24.70;;
31596;SDS011;74162;50.912;6.918;2023-11-21T02:19:41;34.95;;;25.08;;
31596;SDS011;74162;50.912;6.918;2023-11-21T02:20:13;37.22;;;25.30;;
31596;SDS011;74162;50.912;6.918;2023-11-21T02:20:45;33.65;;;24.15;;
31596;SDS011;74162;50.912;6.918;2023-11-21T02:21:17;35.95;;;25.02;;
31596;SDS011;74162;50.912;6.918;2023-11-21T02:21:49;37.05;;;26.42;;
31596;SDS011;74162;50.912;6.918;2023-11-21T02:22:21;36.63;;;25.55;;
31596;SDS011;74162;50.912;6.918;2023-11-21T02:22:55;34.95;;;24.40;;
31596;SDS011;74162;50.912;6.918;2023-11-21T02:23:27;33.63;;;23.45;;
31596;SDS011;74162;50.912;6.918;2023-11-21T02:23:59;38.08;;;24.77;;
31596;SDS011;74162;50.912;6.918;2023-11-21T02:24:31;36.88;;;26.10;;
31596;SDS011;74162;50.912;6.918;2023-11-21T02:25:03;41.50;;;26.05;;
31596;SDS011;74162;50.912;6.918;2023-11-21T02:25:36;37.92;;;25.45;;
31596;SDS011;74162;50.912;6.918;2023-11-21T02:26:07;37.92;;;26.42;;
31596;SDS011;74162;50.912;6.918;2023-11-21T02:26:39;33.65;;;25.67;;
31596;SDS011;74162;50.912;6.918;2023-11-21T02:27:13;38.25;;;27.63;;
31596;SDS011;74162;50.912;6.918;2023-11-21T02:27:45;37.67;;;26.90;;
31596;SDS011;74162;50.912;6.918;2023-11-21T02:28:17;35.38;;;26.13;;
31596;SDS011;74162;50.912;6.918;2023-11-21T02:28:49;39.15;;;25.83;;
31596;SDS011;74162;50.912;6.918;2023-11-21T02:29:21;44.10;;;27.40;;
31596;SDS011;74162;50.912;6.918;2023-11-21T02:29:53;34.15;;;25.42;;
31596;SDS011;74162;50.912;6.918;2023-11-21T02:30:25;36.13;;;26.25;;
31596;SDS011;74162;50.912;6.918;2023-11-21T02:30:57;37.95;;;26.17;;
31596;SDS011;74162;50.912;6.918;2023-11-21T02:31:29;37.03;;;26.15;;
31596;SDS011;74162;50.912;6.918;2023-11-21T02:32:01;37.42;;;27.13;;
31596;SDS011;74162;50.912;6.918;2023-11-21T02:32:33;40.63;;;27.13;;
31596;SDS011;74162;50.912;6.918;2023-11-21T02:33:18;43.30;;;29.42;;
31596;SDS011;74162;50.912;6.918;2023-11-21T02:33:50;44.60;;;29.95;;
31596;SDS011;74162;50.912;6.918;2023-11-21T02:34:22;43.10;;;29.00;;
31596;SDS011;74162;50.912;6.918;2023-11-21T02:34:54;47.03;;;30.55;;
31596;SDS011;74162;50.912;6.918;2023-11-21T02:35:26;46.92;;;31.15;;
31596;SDS011;74162;50.912;6.918;2023-11-21T02:35:58;49.30;;;31.80;;
31596;SDS011;74162;50.912;6.918;2023-11-21T02:36:30;44.63;;;30.40;;
31596;SDS011;74162;50.912;6.918;2023-11-21T02:37:02;49.72;;;30.95;;
31596;SDS011;74162;50.912;6.918;2023-11-21T02:37:34;52.03;;;32.83;;
31596;SDS011;74162;50.912;6.918;2023-11-21T02:38:07;44.28;;;31.27;;
31596;SDS011;74162;50.912;6.918;2023-11-21T02:38:39;50.47;;;32.42;;
31596;SDS011;74162;50.912;6.918;2023-11-21T02:39:11;52.05;;;32.90;;
31596;SDS011;74162;50.912;6.918;2023-11-21T02:39:43;47.80;;;32.40;;
31596;SDS011;74162;50.912;6.918;2023-11-21T02:40:15;49.90;;;33.25;;
31596;SDS011;74162;50.912;6.918;2023-11-21T02:40:47;46.13;;;31.75;;
31596;SDS011;74162;50.912;6.918;2023-11-21T02:41:19;50.78;;;32.95;;
31596;SDS011;74162;50.912;6.918;2023-11-21T02:41:51;47.33;;;31.92;;
31596;SDS011;74162;50.912;6.918;2023-11-21T02:42:23;44.58;;;31.25;;
31596;SDS011;74162;50.912;6.918;2023-11-21T02:42:55;43.25;;;30.90;;
31596;SDS011;74162;50.912;6.918;2023-11-21T02:43:26;49.58;;;32.58;;
31596;SDS011;74162;50.912;6.918;2023-11-21T02:43:58;51.13;;;32.38;;
31596;SDS011;74162;50.912;6.918;2023-11-21T02:44:30;50.30;;;32.28;;
31596;SDS011;74162;50.912;6.918;2023-11-21T02:45:02;58.88;;;32.72;;
31596;SDS011;74162;50.912;6.918;2023-11-21T02:45:35;54.80;;;31.98;;
31596;SDS011;74162;50.912;6.918;2023-11-21T02:46:06;51.63;;;32.00;;
31596;SDS011;74162;50.912;6.918;2023-11-21T02:46:40;41.17;;;30.85;;
31596;SDS011;74162;50.912;6.918;2023-11-21T02:47:11;46.00;;;31.65;;
31596;SDS011;74162;50.912;6.918;2023-11-21T02:47:43;44.33;;;30.33;;
31596;SDS011;74162;50.912;6.918;2023-11-21T02:48:15;45.35;;;29.70;;
31596;SDS011;74162;50.912;6.918;2023-11-21T02:48:47;40.42;;;28.73;;
31596;SDS011;74162;50.912;6.918;2023-11-21T02:49:19;47.42;;;30.48;;
31596;SDS011;74162;50.912;6.918;2023-11-21T02:49:51;40.33;;;28.38;;
31596;SDS011;74162;50.912;6.918;2023-11-21T02:50:23;37.53;;;27.00;;
31596;SDS011;74162;50.912;6.918;2023-11-21T02:50:55;39.85;;;28.42;;
31596;SDS011;74162;50.912;6.918;2023-11-21T02:51:26;39.83;;;28.85;;
31596;SDS011;74162;50.912;6.918;2023-11-21T02:51:58;40.60;;;28.80;;
31596;SDS011;74162;50.912;6.918;2023-11-21T02:52:30;45.83;;;31.63;;
31596;SDS011;74162;50.912;6.918;2023-11-21T02:53:02;38.30;;;29.55;;
31596;SDS011;74162;50.912;6.918;2023-11-21T02:53:35;42.78;;;29.10;;
31596;SDS011;74162;50.912;6.918;2023-11-21T02:54:07;37.15;;;27.85;;
31596;SDS011;74162;50.912;6.918;2023-11-21T02:54:39;40.83;;;29.40;;
31596;SDS011;74162;50.912;6.918;2023-11-21T02:55:11;35.15;;;26.08;;
31596;SDS011;74162;50.912;6.918;2023-11-21T02:55:43;32.83;;;25.48;;
31596;SDS011;74162;50.912;6.918;2023-11-21T02:56:15;37.83;;;27.55;;
31596;SDS011;74162;50.912;6.918;2023-11-21T02:56:47;41.58;;;27.92;;
31596;SDS011;74162;50.912;6.918;2023-11-21T02:57:19;34.58;;;25.33;;
31596;SDS011;74162;50.912;6.918;2023-11-21T02:57:50;29.77;;;24.00;;
31596;SDS011;74162;50.912;6.918;2023-11-21T02:58:22;40.65;;;27.02;;
31596;SDS011;74162;50.912;6.918;2023-11-21T02:58:55;38.80;;;27.77;;
31596;SDS011;74162;50.912;6.918;2023-11-21T02:59:27;33.85;;;25.95;;
31596;SDS011;74162;50.912;6.918;2023-11-21T02:59:59;40.00;;;27.58;;
31596;SDS011;74162;50.912;6.918;2023-11-21T03:00:31;34.20;;;26.10;;
31596;SDS011;74162;50.912;6.918;2023-11-21T03:01:03;34.25;;;25.25;;
31596;SDS011;74162;50.912;6.918;2023-11-21T03:01:35;33.60;;;25.83;;
31596;SDS011;74162;50.912;6.918;2023-11-21T03:02:07;40.88;;;26.40;;
31596;SDS011;74162;50.912;6.918;2023-11-21T03:02:39;34.78;;;25.02;;
31596;SDS011;74162;50.912;6.918;2023-11-21T03:03:11;40.33;;;26.20;;
31596;SDS011;74162;50.912;6.918;2023-11-21T03:03:43;39.83;;;26.70;;
31596;SDS011;74162;50.912;6.918;2023-11-21T03:04:15;34.75;;;25.70;;
31596;SDS011;74162;50.912;6.918;2023-11-21T03:04:47;34.08;;;24.25;;
31596;SDS011;74162;50.912;6.918;2023-11-21T03:05:19;34.65;;;25.35;;
31596;SDS011;74162;50.912;6.918;2023-11-21T03:05:51;34.97;;;25.98;;
31596;SDS011;74162;50.912;6.918;2023-11-21T03:06:23;36.40;;;26.60;;
31596;SDS011;74162;50.912;6.918;2023-11-21T03:06:55;31.75;;;24.38;;
31596;SDS011;74162;50.912;6.918;2023-11-21T03:07:26;33.00;;;24.73;;
31596;SDS011;74162;50.912;6.918;2023-11-21T03:07:58;30.23;;;24.45;;